Time;durP1;ratioP1;P1;durP2;ratioP2;P2;SDS_P1;SDS_P2;PMS_P1;PMS_P2;Temp;Humidity;BMP_temperature;BMP_pressure;BME280_temperature;BME280_humidity;BME280_pressure;Samples;Min_cycle;Max_cycle;Signal;HPM_P1;HPM_P2
2022/12/15 00:40:57;;;;;;;37.33;13.27;;;;;;;0.98;100.00;100473.06;5077889;28;20028;-51
2022/12/15 00:43:24;;;;;;;39.47;13.35;;;;;;;1.19;100.00;100475.53;5078652;28;20060;-49
2022/12/15 00:48:34;;;;;;;27.27;12.40;;;;;;;1.26;100.00;100488.94;5076926;28;20050;-51
2022/12/15 00:50:59;;;;;;;27.90;14.03;;;;;;;1.03;100.00;100488.44;5080269;28;20037;-51
2022/12/15 01:20:59;;;;;;;27.88;13.70;;;;;;;1.05;100.00;100512.84;5079538;28;20024;-53
2022/12/15 01:23:25;;;;;;;29.38;12.93;;;;;;;1.04;100.00;100513.81;5077327;28;20047;-52
2022/12/15 01:25:52;;;;;;;33.17;15.20;;;;;;;0.86;100.00;100514.53;5079087;28;20032;-53
2022/12/15 01:28:19;;;;;;;29.05;12.52;;;;;;;1.02;100.00;100510.50;5079330;28;20044;-49
2022/12/15 01:30:45;;;;;;;39.38;15.35;;;;;;;0.87;100.00;100510.91;5078342;28;20071;-50
2022/12/15 01:33:11;;;;;;;27.73;12.20;;;;;;;1.14;100.00;100506.72;5074675;28;20048;-52
2022/12/15 01:35:37;;;;;;;32.00;12.55;;;;;;;1.12;100.00;100511.28;5080470;28;20041;-48
2022/12/15 01:38:04;;;;;;;29.00;12.88;;;;;;;1.01;100.00;100507.00;5080082;28;20052;-49
2022/12/15 01:40:45;;;;;;;31.58;13.75;;;;;;;0.92;100.00;100513.13;5080349;28;20088;-52
2022/12/15 01:43:17;;;;;;;31.33;13.85;;;;;;;0.89;100.00;100524.78;5075013;28;20033;-54
2022/12/15 01:45:55;;;;;;;30.33;13.90;;;;;;;0.85;100.00;100523.38;5079453;28;20058;-50
2022/12/15 01:48:37;;;;;;;32.83;13.23;;;;;;;0.80;100.00;100534.31;5079270;28;20036;-48
2022/12/15 01:51:30;;;;;;;28.55;12.63;;;;;;;0.67;100.00;100539.06;5073489;28;20121;-53
2022/12/15 01:54:17;;;;;;;32.47;13.40;;;;;;;0.56;100.00;100535.56;5078904;28;20060;-52
2022/12/15 01:56:46;;;;;;;33.13;14.80;;;;;;;0.59;100.00;100529.22;5077377;28;20033;-48
2022/12/15 01:59:19;;;;;;;27.25;13.55;;;;;;;0.33;100.00;100526.25;5075731;28;20064;-49
2022/12/15 02:01:45;;;;;;;34.15;14.15;;;;;;;0.68;100.00;100522.28;5079579;28;20032;-46
2022/12/15 02:04:11;;;;;;;26.17;12.23;;;;;;;0.80;100.00;100525.63;5077378;28;20084;-49
2022/12/15 02:06:37;;;;;;;30.02;13.30;;;;;;;0.84;100.00;100529.63;5075946;28;20037;-51
2022/12/15 02:09:03;;;;;;;28.73;12.40;;;;;;;0.75;100.00;100533.09;5078911;28;20063;-51
2022/12/15 02:12:01;;;;;;;32.00;13.57;;;;;;;0.94;100.00;100537.53;5079485;28;20040;-51
2022/12/15 02:14:39;;;;;;;27.23;12.85;;;;;;;0.79;100.00;100537.13;5078546;28;20029;-53
2022/12/15 02:17:26;;;;;;;29.67;14.25;;;;;;;0.71;100.00;100543.06;5079628;28;20108;-55
2022/12/15 02:20:13;;;;;;;29.00;11.77;;;;;;;0.85;100.00;100552.34;5077612;28;20036;-53
2022/12/15 02:23:13;;;;;;;31.98;12.75;;;;;;;0.69;100.00;100551.13;5080740;28;20097;-47
2022/12/15 02:26:00;;;;;;;27.33;11.35;;;;;;;0.60;100.00;100545.84;5079696;28;20100;-51
2022/12/15 02:28:51;;;;;;;29.15;12.77;;;;;;;0.56;100.00;100556.63;5081895;28;20037;-51
2022/12/15 02:34:36;;;;;;;29.92;13.23;;;;;;;0.46;100.00;100549.69;5080936;28;20043;-47
2022/12/15 02:37:07;;;;;;;;;;;;;;;0.43;100.00;100549.00;5085634;28;20032;-50
2022/12/15 02:39:33;;;;;;;26.38;12.15;;;;;;;0.19;100.00;100554.63;5075703;28;20232;-51
2022/12/15 02:41:58;;;;;;;30.80;13.17;;;;;;;0.30;100.00;100560.75;5080739;28;20045;-50
2022/12/15 02:44:35;;;;;;;29.92;13.82;;;;;;;0.34;100.00;100562.97;5082900;28;20025;-48
2022/12/15 02:47:21;;;;;;;28.42;13.52;;;;;;;0.30;100.00;100561.59;5085467;28;20041;-49
2022/12/15 02:50:15;;;;;;;27.48;12.60;;;;;;;0.13;100.00;100558.63;5081945;28;20044;-51
2022/12/15 02:52:46;;;;;;;31.00;15.05;;;;;;;0.14;100.00;100551.59;5079464;28;20028;-51
2022/12/15 02:55:36;;;;;;;34.47;11.75;;;;;;;0.18;100.00;100550.34;5079489;28;20033;-50
2022/12/15 02:58:26;;;;;;;31.80;14.40;;;;;;;0.26;100.00;100539.16;5084515;28;20037;-51
2022/12/15 03:00:58;;;;;;;33.08;13.50;;;;;;;0.28;100.00;100548.56;5078194;28;20033;-50
2022/12/15 03:03:25;;;;;;;30.42;13.85;;;;;;;0.12;100.00;100543.81;5080899;28;20028;-47
2022/12/15 03:05:53;;;;;;;41.22;14.82;;;;;;;0.17;100.00;100545.19;5080799;28;20101;-55
2022/12/15 03:08:20;;;;;;;28.05;13.52;;;;;;;0.24;100.00;100544.53;5078595;28;20040;-51
2022/12/15 03:10:46;;;;;;;;;;;;;;;0.26;100.00;100554.94;5079228;28;20032;-53
2022/12/15 03:13:13;;;;;;;28.30;12.93;;;;;;;0.33;100.00;100547.31;5080325;28;19916;-50
2022/12/15 03:15:38;;;;;;;31.45;13.75;;;;;;;0.21;100.00;100551.84;5080189;28;20037;-50
2022/12/15 03:18:04;;;;;;;23.90;11.13;;;;;;;0.05;100.00;100558.47;5082220;28;20082;-51
2022/12/15 03:20:30;;;;;;;31.52;13.15;;;;;;;0.47;100.00;100565.34;5081888;28;20028;-50
2022/12/15 03:22:55;;;;;;;21.55;10.63;;;;;;;0.02;100.00;100560.53;5083422;28;20043;-49
2022/12/15 03:25:21;;;;;;;32.83;14.60;;;;;;;-0.08;100.00;100569.22;5081580;28;20048;-52
2022/12/15 03:27:46;;;;;;;34.63;15.23;;;;;;;0.18;100.00;100568.75;5082888;28;20329;-50
2022/12/15 03:30:12;;;;;;;37.42;15.15;;;;;;;0.22;100.00;100564.03;5081997;28;20068;-55
2022/12/15 03:32:39;;;;;;;34.50;13.85;;;;;;;0.35;100.00;100576.97;5083019;28;20048;-47
2022/12/15 03:35:05;;;;;;;23.50;12.60;;;;;;;0.27;100.00;100569.75;5082056;28;20036;-49
2022/12/15 03:37:31;;;;;;;33.20;13.35;;;;;;;0.05;100.00;100560.25;5080766;28;20096;-49
2022/12/15 03:39:57;;;;;;;32.92;13.85;;;;;;;0.00;100.00;100571.19;5079588;28;20029;-49
2022/12/15 03:45:07;;;;;;;31.73;16.13;;;;;;;0.35;100.00;100579.59;5084498;28;20301;-53
2022/12/15 03:47:32;;;;;;;43.28;14.60;;;;;;;0.11;100.00;100578.13;5079380;28;20040;-51
2022/12/15 03:49:58;;;;;;;37.50;16.63;;;;;;;-0.03;100.00;100582.78;5081628;28;20036;-49
2022/12/15 03:52:23;;;;;;;29.52;12.75;;;;;;;-0.09;100.00;100582.47;5083416;28;20047;-50
2022/12/15 03:54:49;;;;;;;45.95;16.98;;;;;;;0.03;100.00;100585.84;5081589;28;20059;-53
2022/12/15 03:57:14;;;;;;;30.20;12.32;;;;;;;0.29;100.00;100583.59;5081479;28;20025;-50
2022/12/15 03:59:39;;;;;;;31.47;14.37;;;;;;;0.12;100.00;100580.63;5082322;28;20048;-51
2022/12/15 04:02:05;;;;;;;31.13;14.53;;;;;;;-0.15;100.00;100583.84;5085523;28;20068;-53
2022/12/15 04:04:31;;;;;;;31.35;14.85;;;;;;;0.11;100.00;100594.75;5082359;28;20028;-52
2022/12/15 04:06:56;;;;;;;36.40;15.70;;;;;;;0.27;100.00;100598.69;5080302;28;20060;-52
2022/12/15 04:09:22;;;;;;;34.95;17.08;;;;;;;0.05;100.00;100589.19;5081884;28;20074;-53
2022/12/15 04:11:47;;;;;;;36.78;15.70;;;;;;;-0.10;100.00;100586.94;5090744;28;20020;-49
2022/12/15 04:14:13;;;;;;;32.22;12.50;;;;;;;-0.16;100.00;100588.28;5078009;28;20028;-54
2022/12/15 04:16:38;;;;;;;33.75;15.98;;;;;;;0.10;100.00;100592.25;5080593;28;20037;-51
2022/12/15 04:21:48;;;;;;;33.95;14.15;;;;;;;-0.16;100.00;100587.44;5077187;28;20107;-53
2022/12/15 05:32:38;;;;;;;42.80;17.73;;;;;;;-0.61;100.00;100606.97;5072086;28;20041;-51
2022/12/15 05:35:04;;;;;;;51.83;17.93;;;;;;;-0.70;100.00;100613.81;5076326;28;20055;-52
2022/12/15 05:37:30;;;;;;;43.97;17.92;;;;;;;-0.66;100.00;100614.41;5075242;28;20044;-52
2022/12/15 05:39:55;;;;;;;47.27;18.20;;;;;;;-0.68;100.00;100616.31;5075051;28;20056;-52
2022/12/15 05:42:21;;;;;;;44.30;20.05;;;;;;;-0.70;100.00;100616.44;5079493;28;20282;-50
2022/12/15 05:44:46;;;;;;;43.00;20.20;;;;;;;-0.72;100.00;100607.88;5084537;28;20035;-50
2022/12/15 05:47:12;;;;;;;48.35;19.38;;;;;;;-0.34;100.00;100616.97;5069471;28;20111;-51
2022/12/15 05:49:37;;;;;;;43.43;18.03;;;;;;;-0.72;100.00;100619.19;5073629;28;20044;-51
2022/12/15 05:52:03;;;;;;;43.53;19.23;;;;;;;-0.48;100.00;100614.66;5078501;28;20157;-51
2022/12/15 05:54:28;;;;;;;34.15;14.90;;;;;;;-0.31;100.00;100621.97;5082917;28;20032;-51
2022/12/15 05:56:54;;;;;;;48.80;19.63;;;;;;;-0.22;100.00;100620.34;5081357;28;20037;-54
2022/12/15 05:59:19;;;;;;;43.85;18.90;;;;;;;-0.48;100.00;100628.59;5075243;28;20028;-51
2022/12/15 06:01:45;;;;;;;46.85;20.40;;;;;;;-0.61;100.00;100627.97;5076193;28;20036;-49
2022/12/15 06:04:11;;;;;;;47.92;18.83;;;;;;;-0.84;100.00;100630.72;5072944;28;20056;-50
2022/12/15 06:06:37;;;;;;;45.33;19.77;;;;;;;-0.86;100.00;100632.63;5068048;28;20029;-52
2022/12/15 06:09:03;;;;;;;48.38;19.65;;;;;;;-0.80;100.00;100633.94;5072997;28;20044;-50
2022/12/15 06:11:29;;;;;;;49.10;20.75;;;;;;;-0.85;100.00;100644.81;5075007;28;20037;-50
2022/12/15 06:13:55;;;;;;;49.27;21.17;;;;;;;-0.74;100.00;100636.88;5074361;28;20032;-52
2022/12/15 06:16:23;;;;;;;51.58;21.52;;;;;;;-0.79;100.00;100639.03;5076672;28;20287;-49
2022/12/15 06:18:53;;;;;;;56.75;23.58;;;;;;;-0.73;100.00;100643.78;5077919;28;20036;-49
2022/12/15 06:21:22;;;;;;;54.97;21.33;;;;;;;-0.89;100.00;100638.97;5081240;28;20045;-53
2022/12/15 06:23:49;;;;;;;49.45;22.02;;;;;;;-0.85;100.00;100649.22;5073815;28;20034;-54
2022/12/15 06:26:17;;;;;;;47.20;20.83;;;;;;;0.38;100.00;100645.09;5078881;28;20037;-52
2022/12/15 06:28:43;;;;;;;52.20;21.50;;;;;;;-0.85;100.00;100638.72;5074344;28;20049;-53
2022/12/15 06:31:10;;;;;;;50.47;22.35;;;;;;;-0.68;100.00;100639.97;5073686;28;20076;-53
2022/12/15 06:33:36;;;;;;;52.10;22.95;;;;;;;-0.76;100.00;100654.53;5072388;28;20033;-51
2022/12/15 06:36:08;;;;;;;50.05;21.92;;;;;;;-0.64;100.00;100652.69;5074431;28;20096;-50
2022/12/15 06:38:34;;;;;;;46.22;21.95;;;;;;;-0.68;100.00;100656.53;5075825;28;20029;-51
2022/12/15 06:41:01;;;;;;;46.90;21.50;;;;;;;-0.70;100.00;100652.38;5076049;28;20117;-50
2022/12/15 06:43:28;;;;;;;46.72;20.73;;;;;;;-0.64;100.00;100654.50;5078289;28;20025;-54
2022/12/15 06:45:54;;;;;;;43.47;20.02;;;;;;;-0.68;100.00;100650.47;5072447;28;20037;-52
2022/12/15 06:48:21;;;;;;;52.45;20.73;;;;;;;-0.78;100.00;100651.22;5078068;28;20021;-48
2022/12/15 06:50:46;;;;;;;58.40;25.23;;;;;;;-0.69;100.00;100647.00;5071490;28;20033;-50
2022/12/15 06:53:13;;;;;;;51.93;23.80;;;;;;;-0.31;100.00;100648.25;5074209;28;20033;-52
2022/12/15 06:55:40;;;;;;;59.75;25.77;;;;;;;-0.30;100.00;100646.44;5074724;28;20025;-51
2022/12/15 06:58:06;;;;;;;51.50;23.83;;;;;;;-0.18;100.00;100641.94;5076918;28;20040;-54
2022/12/15 07:00:33;;;;;;;57.00;26.17;;;;;;;-0.30;100.00;100646.44;5075289;28;20052;-52
2022/12/15 07:02:58;;;;;;;57.92;23.95;;;;;;;-0.12;100.00;100653.72;5074713;28;20037;-51
2022/12/15 07:05:24;;;;;;;50.73;20.70;;;;;;;-0.13;100.00;100657.31;5076807;28;20029;-52
2022/12/15 07:07:51;;;;;;;48.47;21.27;;;;;;;-0.06;100.00;100656.69;5074323;28;20265;-53
2022/12/15 07:10:16;;;;;;;49.58;20.20;;;;;;;-0.22;100.00;100657.16;5074077;28;20329;-50
2022/12/15 07:12:42;;;;;;;46.70;20.00;;;;;;;-0.29;100.00;100663.88;5078705;28;20044;-51
2022/12/15 07:15:08;;;;;;;42.10;19.70;;;;;;;-0.34;100.00;100663.41;5074133;28;20076;-51
2022/12/15 07:17:35;;;;;;;48.53;19.98;;;;;;;-0.39;100.00;100671.69;5084194;28;20041;-52
2022/12/15 07:20:06;;;;;;;46.80;19.80;;;;;;;-0.32;100.00;100666.75;5077832;28;20029;-50
2022/12/15 07:22:31;;;;;;;39.72;19.33;;;;;;;-0.32;100.00;100677.25;5082464;28;20021;-51
2022/12/15 07:24:57;;;;;;;49.58;21.48;;;;;;;-0.50;100.00;100672.56;5077044;28;20043;-49
2022/12/15 07:27:23;;;;;;;42.70;19.98;;;;;;;-0.48;100.00;100677.72;5078274;28;20036;-52
2022/12/15 07:29:48;;;;;;;56.08;21.38;;;;;;;-0.51;100.00;100678.78;5073373;28;20032;-51
2022/12/15 07:32:14;;;;;;;43.05;19.65;;;;;;;-0.63;100.00;100674.56;5080297;28;20045;-53
2022/12/15 07:34:41;;;;;;;42.08;18.95;;;;;;;-0.53;100.00;100675.47;5087211;28;20054;-51
2022/12/15 07:37:07;;;;;;;55.00;22.27;;;;;;;-0.67;100.00;100679.22;5080112;28;20028;-49
2022/12/15 07:39:32;;;;;;;31.80;14.30;;;;;;;-0.61;100.00;100670.00;5082015;28;20045;-51
2022/12/15 07:41:58;;;;;;;49.63;19.77;;;;;;;-0.45;100.00;100683.56;5083098;28;20025;-49
2022/12/15 07:44:25;;;;;;;45.95;19.48;;;;;;;-0.50;100.00;100680.47;5083082;28;20103;-50
2022/12/15 07:46:51;;;;;;;44.30;19.97;;;;;;;-0.52;100.00;100676.31;5087632;28;20069;-52
2022/12/15 07:49:17;;;;;;;46.60;20.83;;;;;;;-0.54;100.00;100688.72;5079487;28;20025;-47
2022/12/15 07:51:43;;;;;;;51.80;21.63;;;;;;;-0.56;100.00;100690.66;5075782;28;20273;-49
2022/12/15 07:54:10;;;;;;;52.67;20.83;;;;;;;-0.81;100.00;100692.63;5082074;28;20047;-52
2022/12/15 07:56:37;;;;;;;48.47;22.25;;;;;;;-0.83;100.00;100690.16;5080165;28;20059;-50
2022/12/15 07:59:03;;;;;;;49.75;22.88;;;;;;;-0.79;100.00;100688.13;5078349;28;20041;-51
2022/12/15 08:01:29;;;;;;;46.20;19.77;;;;;;;-0.70;100.00;100691.75;5084092;28;20021;-49
2022/12/15 08:03:54;;;;;;;51.23;22.97;;;;;;;-0.69;100.00;100698.69;5079939;28;20050;-49
2022/12/15 08:06:20;;;;;;;53.05;22.60;;;;;;;-0.69;100.00;100703.94;5083706;28;20036;-54
2022/12/15 08:08:46;;;;;;;51.10;23.42;;;;;;;-0.76;100.00;100699.19;5078442;28;20060;-51
2022/12/15 08:11:13;;;;;;;50.20;21.63;;;;;;;-0.75;100.00;100714.00;5084006;28;20036;-51
2022/12/15 08:13:40;;;;;;;50.58;22.50;;;;;;;-0.89;100.00;100711.66;5079150;28;20055;-53
2022/12/15 08:16:06;;;;;;;55.42;22.58;;;;;;;-1.24;100.00;100725.78;5085961;28;20032;-48
2022/12/15 08:18:38;;;;;;;51.92;22.60;;;;;;;-1.11;100.00;100708.13;5078354;28;20033;-54
2022/12/15 08:21:09;;;;;;;40.50;18.75;;;;;;;-1.30;100.00;100714.84;5078774;28;20109;-53
2022/12/15 08:23:35;;;;;;;52.63;22.40;;;;;;;-1.07;100.00;100725.28;5081359;28;20071;-51
2022/12/15 08:26:04;;;;;;;52.63;21.10;;;;;;;-1.16;100.00;100732.09;5080099;28;20056;-52
2022/12/15 08:28:34;;;;;;;54.13;21.55;;;;;;;-1.01;100.00;100719.56;5077166;28;20116;-54
2022/12/15 08:31:11;;;;;;;48.72;21.58;;;;;;;-0.94;100.00;100729.56;5082250;28;20052;-52
2022/12/15 08:33:38;;;;;;;59.20;24.08;;;;;;;-1.18;100.00;100728.78;5076479;28;20025;-54
2022/12/15 08:36:06;;;;;;;47.78;21.73;;;;;;;-1.10;100.00;100732.56;5081252;28;20127;-49
2022/12/15 08:38:33;;;;;;;53.17;25.02;;;;;;;-1.13;100.00;100741.53;5077855;28;20090;-51
2022/12/15 08:41:11;;;;;;;60.20;24.35;;;;;;;-1.20;100.00;100733.31;5082856;28;20104;-54
2022/12/15 08:43:37;;;;;;;56.08;23.30;;;;;;;-0.87;100.00;100730.75;5076518;28;20105;-54
2022/12/15 08:46:03;;;;;;;54.25;22.10;;;;;;;-0.89;100.00;100732.66;5079244;28;20044;-50
2022/12/15 08:48:29;;;;;;;58.17;23.63;;;;;;;-0.78;100.00;100740.50;5077466;28;20096;-53
2022/12/15 08:50:56;;;;;;;49.55;23.70;;;;;;;-0.46;100.00;100750.22;5074763;28;20037;-48
2022/12/15 08:53:21;;;;;;;;;;;;;;;-0.13;100.00;100744.06;5077388;28;20052;-52
2022/12/15 08:55:47;;;;;;;55.57;21.20;;;;;;;-0.49;100.00;100750.44;5078741;28;19913;-49
2022/12/15 08:58:13;;;;;;;54.30;24.02;;;;;;;-0.44;100.00;100752.69;5076792;28;20101;-53
2022/12/15 09:00:38;;;;;;;54.53;22.50;;;;;;;-0.23;100.00;100749.25;5078622;28;20033;-51
2022/12/15 09:03:04;;;;;;;53.83;23.73;;;;;;;-0.13;100.00;100739.63;5081767;28;20058;-52
2022/12/15 09:05:30;;;;;;;52.35;23.50;;;;;;;0.02;100.00;100747.22;5079982;28;20048;-53
2022/12/15 09:07:56;;;;;;;57.60;25.77;;;;;;;0.16;100.00;100743.41;5080984;28;20036;-48
2022/12/15 09:10:22;;;;;;;48.33;23.23;;;;;;;0.22;100.00;100743.75;5080083;28;20040;-49
2022/12/15 09:12:48;;;;;;;50.63;24.42;;;;;;;0.29;100.00;100746.69;5075782;28;20033;-50
2022/12/15 09:15:14;;;;;;;57.70;24.63;;;;;;;0.33;100.00;100744.63;5075948;28;20025;-50
2022/12/15 09:17:39;;;;;;;47.67;21.85;;;;;;;0.37;100.00;100749.50;5080917;28;20037;-53
2022/12/15 09:20:05;;;;;;;52.20;22.37;;;;;;;0.49;100.00;100747.63;5079910;28;20965;-50
2022/12/15 09:22:31;;;;;;;54.67;23.80;;;;;;;0.54;100.00;100740.16;5079598;28;20036;-50
2022/12/15 09:24:56;;;;;;;46.30;19.67;;;;;;;0.64;100.00;100752.53;5082856;28;20038;-49
2022/12/15 09:27:22;;;;;;;56.35;23.88;;;;;;;0.74;100.00;100760.47;5078830;28;20032;-50
2022/12/15 09:29:47;;;;;;;57.38;24.30;;;;;;;1.00;100.00;100764.28;5081203;28;20040;-49
2022/12/15 09:32:13;;;;;;;56.73;24.17;;;;;;;1.92;100.00;100773.81;5080644;28;20083;-50
2022/12/15 09:34:39;;;;;;;50.72;25.15;;;;;;;3.81;100.00;100779.75;5078435;28;20280;-50
2022/12/15 09:37:04;;;;;;;50.78;22.20;;;;;;;4.83;100.00;100789.00;5077866;28;20045;-51
2022/12/15 09:39:31;;;;;;;45.40;20.55;;;;;;;5.82;100.00;100797.22;5078740;28;20120;-50
2022/12/15 09:41:59;;;;;;;41.67;19.58;;;;;;;6.00;100.00;100806.88;5075577;28;20103;-51
2022/12/15 09:44:28;;;;;;;39.17;19.13;;;;;;;6.55;98.19;100812.47;5080714;28;20056;-49
2022/12/15 09:47:17;;;;;;;40.75;20.25;;;;;;;6.08;94.37;100819.31;5080213;28;20033;-52
2022/12/15 09:49:56;;;;;;;40.58;18.58;;;;;;;6.48;93.74;100812.31;5079252;28;20033;-54
2022/12/15 09:52:27;;;;;;;36.97;20.70;;;;;;;7.38;86.69;100822.78;5080826;28;20143;-53
2022/12/15 09:54:55;;;;;;;40.67;18.70;;;;;;;7.64;85.08;100816.34;5080797;28;20056;-51
2022/12/15 09:57:41;;;;;;;40.83;20.45;;;;;;;7.46;84.02;100822.75;5078576;28;20089;-51
2022/12/15 10:00:15;;;;;;;39.92;19.38;;;;;;;7.83;81.96;100826.50;5078538;28;20055;-53
2022/12/15 10:02:44;;;;;;;37.70;20.40;;;;;;;7.90;81.53;100815.97;5075521;28;20038;-52
2022/12/15 10:05:23;;;;;;;39.83;19.17;;;;;;;8.88;75.37;100808.09;5076456;28;20053;-50
2022/12/15 10:07:49;;;;;;;36.92;19.30;;;;;;;8.61;76.04;100814.88;5080161;28;20033;-52
2022/12/15 10:10:26;;;;;;;37.38;19.95;;;;;;;8.01;78.26;100812.91;5077818;28;20476;-51
2022/12/15 10:12:59;;;;;;;38.83;20.35;;;;;;;8.58;79.41;100807.25;5076063;28;20021;-52
2022/12/15 10:15:27;;;;;;;39.63;19.75;;;;;;;9.33;75.94;100815.16;5080844;28;20051;-55
2022/12/15 10:18:15;;;;;;;41.50;20.00;;;;;;;9.40;73.27;100812.59;5077403;28;20037;-52
2022/12/15 10:20:40;;;;;;;34.20;19.20;;;;;;;9.06;75.10;100808.72;5081540;28;20021;-53
2022/12/15 10:23:14;;;;;;;40.30;20.50;;;;;;;8.59;77.60;100811.56;5081578;28;20039;-48
2022/12/15 10:25:48;;;;;;;43.08;20.05;;;;;;;8.62;79.67;100805.88;5080731;28;20042;-54
2022/12/15 10:28:16;;;;;;;37.47;18.35;;;;;;;8.79;79.54;100819.03;5082702;28;20052;-54
2022/12/15 10:31:01;;;;;;;35.97;19.70;;;;;;;9.03;81.12;100809.91;5075489;28;20073;-50
2022/12/15 10:33:37;;;;;;;36.50;18.92;;;;;;;9.58;78.03;100810.31;5077380;28;20036;-52
2022/12/15 10:36:11;;;;;;;34.95;18.23;;;;;;;10.20;73.64;100812.53;5082999;28;20047;-52
2022/12/15 10:38:44;;;;;;;39.83;18.40;;;;;;;10.04;74.06;100814.47;5082201;28;20058;-52
2022/12/15 10:41:11;;;;;;;40.70;20.77;;;;;;;10.37;73.00;100810.38;5079255;28;20303;-51
2022/12/15 10:43:42;;;;;;;37.80;20.43;;;;;;;10.74;70.31;100803.03;5081220;28;20289;-51
2022/12/15 10:46:07;;;;;;;41.33;21.10;;;;;;;10.80;69.99;100812.13;5082242;28;20272;-47
2022/12/15 10:48:34;;;;;;;46.13;21.48;;;;;;;11.17;68.61;100819.91;5081455;28;20273;-48
2022/12/15 10:51:12;;;;;;;35.37;18.23;;;;;;;10.84;68.65;100812.53;5082344;28;20075;-51
2022/12/15 10:53:44;;;;;;;36.57;19.90;;;;;;;12.22;64.26;100809.81;5082617;28;20324;-50
2022/12/15 10:56:25;;;;;;;35.87;19.17;;;;;;;13.00;61.39;100814.41;5080963;28;20273;-52
2022/12/15 10:58:53;;;;;;;33.53;18.57;;;;;;;13.18;60.24;100810.22;5080211;28;20360;-51
2022/12/15 11:01:28;;;;;;;35.57;17.67;;;;;;;13.32;59.35;100814.47;5084170;28;20277;-53
2022/12/15 11:03:54;;;;;;;31.10;18.70;;;;;;;13.64;57.50;100818.28;5080512;28;20296;-49
2022/12/15 11:06:23;;;;;;;32.00;18.07;;;;;;;12.60;59.03;100814.53;5086155;28;20272;-51
2022/12/15 11:08:53;;;;;;;38.13;19.03;;;;;;;14.26;57.54;100812.22;5084357;28;20269;-52
2022/12/15 11:14:27;;;;;;;31.07;17.33;;;;;;;14.69;53.25;100811.38;5082954;28;20281;-50
2022/12/15 11:16:57;;;;;;;33.97;19.30;;;;;;;12.86;57.91;100804.75;5080956;28;20276;-53
2022/12/15 11:19:26;;;;;;;34.00;19.83;;;;;;;12.95;61.63;100799.97;5079397;28;20274;-50
2022/12/15 11:21:58;;;;;;;33.37;17.93;;;;;;;12.71;62.84;100800.47;5080298;28;20280;-52
2022/12/15 11:24:45;;;;;;;34.13;18.30;;;;;;;13.86;61.36;100806.16;5078715;28;20277;-51
2022/12/15 11:27:28;;;;;;;32.75;18.70;;;;;;;14.00;59.40;100814.09;5075480;28;20338;-51
2022/12/15 11:30:01;;;;;;;35.33;18.17;;;;;;;15.64;55.09;100821.84;5078987;28;20096;-52
2022/12/15 11:32:38;;;;;;;32.47;16.93;;;;;;;15.96;52.62;100816.19;5076609;28;20263;-50
2022/12/15 11:35:10;;;;;;;29.75;17.23;;;;;;;16.22;51.07;100816.00;5080635;28;20273;-53
2022/12/15 11:37:39;;;;;;;32.93;16.87;;;;;;;16.57;50.36;100820.56;5081889;28;20086;-51
2022/12/15 11:40:30;;;;;;;30.20;17.27;;;;;;;16.41;49.78;100825.63;5082251;28;20040;-52
2022/12/15 11:43:17;;;;;;;31.73;17.27;;;;;;;14.58;52.07;100801.38;5077699;28;20033;-52
2022/12/15 11:45:58;;;;;;;29.02;16.25;;;;;;;14.48;53.76;100808.06;5085580;28;20029;-52
2022/12/15 11:48:31;;;;;;;28.80;16.20;;;;;;;13.37;56.58;100799.56;5083724;28;20029;-51
2022/12/15 11:51:06;;;;;;;37.37;17.30;;;;;;;13.12;59.36;100795.78;5079503;28;20280;-51
2022/12/15 11:53:42;;;;;;;31.63;18.70;;;;;;;13.17;60.54;100806.72;5080442;28;20338;-53
2022/12/15 11:56:54;;;;;;;28.05;17.90;;;;;;;12.95;62.23;100803.50;5078040;28;20273;-55
2022/12/15 11:59:40;;;;;;;31.20;17.83;;;;;;;14.16;58.82;100813.56;5069742;28;20049;-50
2022/12/15 12:02:14;;;;;;;33.40;18.10;;;;;;;14.97;56.43;100812.75;5078673;28;20316;-54
2022/12/15 12:05:02;;;;;;;34.73;18.83;;;;;;;15.75;54.11;100815.66;5078968;28;20281;-53
2022/12/15 12:07:36;;;;;;;30.67;17.92;;;;;;;15.69;53.51;100813.09;5079210;28;20341;-54
2022/12/15 12:10:41;;;;;;;34.03;19.00;;;;;;;17.10;50.51;100809.84;5079750;28;20033;-53
2022/12/15 12:13:17;;;;;;;32.83;19.10;;;;;;;18.23;46.93;100807.47;5083263;28;20824;-52
2022/12/15 12:16:05;;;;;;;36.13;17.52;;;;;;;17.80;46.45;100815.13;5078625;28;20047;-54
2022/12/15 12:18:55;;;;;;;33.47;17.67;;;;;;;18.07;45.61;100812.66;5083710;28;20057;-54
2022/12/15 12:21:30;;;;;;;29.07;18.47;;;;;;;18.59;44.87;100810.69;5081088;28;20024;-51
2022/12/15 12:24:02;;;;;;;31.70;18.23;;;;;;;18.22;45.23;100805.81;5080338;28;20029;-52
2022/12/15 12:26:35;;;;;;;35.50;19.07;;;;;;;18.52;44.07;100807.34;5081822;28;20043;-53
2022/12/15 12:29:06;;;;;;;29.97;17.70;;;;;;;18.36;43.67;100807.13;5077776;28;20032;-50
2022/12/15 12:31:42;;;;;;;33.17;18.23;;;;;;;15.36;47.50;100806.28;5082368;28;20049;-54
2022/12/15 12:34:14;;;;;;;31.40;18.42;;;;;;;12.95;53.24;100792.78;5081099;28;20032;-51
2022/12/15 12:36:43;;;;;;;31.03;19.30;;;;;;;11.44;61.74;100786.03;5081080;28;20041;-51
2022/12/15 12:39:19;;;;;;;30.57;19.40;;;;;;;11.34;67.40;100780.22;5076628;28;20266;-53
2022/12/15 12:41:54;;;;;;;38.07;19.23;;;;;;;9.80;76.92;100772.94;5078362;28;20292;-52
2022/12/15 12:44:33;;;;;;;32.27;18.93;;;;;;;9.66;84.09;100776.50;5081676;28;20305;-49
2022/12/15 12:47:08;;;;;;;41.22;20.75;;;;;;;9.70;86.05;100775.13;5080316;28;20742;-53
2022/12/15 12:49:42;;;;;;;38.80;20.15;;;;;;;9.49;88.01;100767.91;5076188;28;20096;-48
2022/12/15 12:52:23;;;;;;;39.50;20.90;;;;;;;9.72;86.89;100773.91;5082080;28;20059;-48
2022/12/15 12:55:11;;;;;;;35.78;19.40;;;;;;;9.84;85.08;100763.53;5078812;28;20104;-55
2022/12/15 12:57:39;;;;;;;35.85;18.23;;;;;;;10.12;83.31;100760.03;5081114;28;20037;-50
2022/12/15 13:00:07;;;;;;;38.50;19.30;;;;;;;10.26;82.54;100749.44;5080661;28;20127;-54
2022/12/15 13:02:39;;;;;;;35.42;18.15;;;;;;;9.99;83.03;100754.59;5078519;28;20040;-55
2022/12/15 13:05:32;;;;;;;35.67;18.65;;;;;;;9.07;90.40;100747.16;5081968;28;20059;-47
2022/12/15 13:08:04;;;;;;;40.05;18.95;;;;;;;9.57;90.18;100741.94;5082410;28;20040;-49
2022/12/15 13:10:33;;;;;;;35.53;18.92;;;;;;;10.68;81.54;100747.66;5080413;28;20056;-51
2022/12/15 13:13:07;;;;;;;35.92;19.55;;;;;;;11.40;76.77;100746.47;5080848;28;20028;-52
2022/12/15 13:15:41;;;;;;;31.33;18.50;;;;;;;12.59;70.12;100741.28;5078104;28;20039;-52
2022/12/15 13:18:26;;;;;;;39.13;18.53;;;;;;;12.85;65.97;100741.38;5075915;28;20044;-52
2022/12/15 13:20:54;;;;;;;38.57;20.13;;;;;;;13.22;64.32;100746.16;5074684;28;20326;-49
2022/12/15 13:23:22;;;;;;;41.37;22.17;;;;;;;13.57;61.64;100738.53;5082542;28;20311;-51
2022/12/15 13:25:51;;;;;;;42.47;24.10;;;;;;;13.54;60.96;100736.28;5081073;28;20274;-54
2022/12/15 13:28:37;;;;;;;45.33;23.90;;;;;;;13.77;60.38;100740.25;5077981;28;20276;-49
2022/12/15 13:31:19;;;;;;;39.92;21.60;;;;;;;13.27;60.20;100741.78;5073254;28;20297;-56
2022/12/15 13:33:47;;;;;;;33.83;19.40;;;;;;;11.73;66.63;100738.47;5075917;28;20044;-50
2022/12/15 13:36:36;;;;;;;44.40;20.47;;;;;;;11.70;69.35;100744.25;5080914;28;20324;-54
2022/12/15 13:39:21;;;;;;;39.08;20.33;;;;;;;11.84;68.01;100728.16;5081334;28;20293;-50
2022/12/15 13:41:47;;;;;;;35.63;19.27;;;;;;;11.60;68.19;100733.09;5079686;28;20037;-51
2022/12/15 13:44:31;;;;;;;36.43;20.20;;;;;;;10.81;73.22;100727.34;5081093;28;20345;-50
2022/12/15 13:47:17;;;;;;;32.70;18.77;;;;;;;10.10;80.12;100713.97;5080090;28;20029;-53
2022/12/15 13:49:53;;;;;;;36.70;19.92;;;;;;;10.65;80.16;100715.97;5081023;28;20289;-50
2022/12/15 13:52:31;;;;;;;39.67;20.05;;;;;;;11.14;76.68;100705.22;5079167;28;20050;-54
2022/12/15 13:55:05;;;;;;;34.73;18.70;;;;;;;12.51;69.97;100712.00;5079750;28;20060;-53
2022/12/15 13:57:33;;;;;;;38.50;19.90;;;;;;;12.99;65.96;100715.31;5078130;28;20266;-52